Ramer, Alabama
Current Conditions -  °F | °C
As of 11:53 AM on Thursday 29 Jan 2015 (Local Time) from KTOI Reporting Station
Clear Clear  
Wind Chill: 16°   Ceiling: Unl
Heat Index: 16°   Visibility: 10mi
Dew Point:   Wind: 9mph
Humidity: 41%   Direction: 230°SW
Pressure: 30.27"   Gusts: NA
Location:  32.05°N, 86.22°W
Report Text: KTOI 291753Z AUTO 23008KT 10SM CLR 16/03 A3027 RMK AO2 SLP248 T01610028 10161 20000 58014
Loading
Personal Weather Stations






























Interactive Weather Map New forecast layout! Learn more

10-Day Weather Forecast

Advertisements
Track Severe Weather on mobile